sensor_id;sensor_type;location;lat;lon;timestamp;pressure;altitude;pressure_sealevel;temperature;humidity
46946;BME280;32679;40.810;14.498;2023-11-21T00:15:56;75398.13;;;14.64;100.00
46946;BME280;32679;40.810;14.498;2023-11-21T00:18:21;75361.38;;;14.31;100.00
46946;BME280;32679;40.810;14.498;2023-11-21T00:20:47;75361.38;;;14.31;100.00
46946;BME280;32679;40.810;14.498;2023-11-21T00:23:12;75381.59;;;14.53;100.00
46946;BME280;32679;40.810;14.498;2023-11-21T00:25:37;75371.75;;;14.42;100.00
46946;BME280;32679;40.810;14.498;2023-11-21T00:28:03;75385.56;;;14.54;100.00
46946;BME280;32679;40.810;14.498;2023-11-21T00:30:28;75393.38;;;14.60;100.00
46946;BME280;32679;40.810;14.498;2023-11-21T00:32:54;75398.53;;;14.62;100.00
46946;BME280;32679;40.810;14.498;2023-11-21T00:35:20;75378.00;;;14.50;100.00
46946;BME280;32679;40.810;14.498;2023-11-21T00:37:45;75392.78;;;14.60;100.00
46946;BME280;32679;40.810;14.498;2023-11-21T00:40:12;75359.03;;;14.36;100.00
46946;BME280;32679;40.810;14.498;2023-11-21T00:42:37;75397.38;;;14.68;100.00
46946;BME280;32679;40.810;14.498;2023-11-21T00:45:03;75404.34;;;14.72;100.00
46946;BME280;32679;40.810;14.498;2023-11-21T00:47:29;75388.41;;;14.61;100.00
46946;BME280;32679;40.810;14.498;2023-11-21T00:49:54;75379.34;;;14.46;100.00
46946;BME280;32679;40.810;14.498;2023-11-21T00:52:20;75377.41;;;14.49;100.00
46946;BME280;32679;40.810;14.498;2023-11-21T00:54:46;75384.97;;;14.53;100.00
46946;BME280;32679;40.810;14.498;2023-11-21T00:57:11;75359.19;;;14.31;100.00
46946;BME280;32679;40.810;14.498;2023-11-21T00:59:37;75384.38;;;14.53;100.00
46946;BME280;32679;40.810;14.498;2023-11-21T01:02:02;75381.38;;;14.50;100.00
46946;BME280;32679;40.810;14.498;2023-11-21T01:04:30;75378.22;;;14.52;100.00
46946;BME280;32679;40.810;14.498;2023-11-21T01:06:57;75393.97;;;14.61;100.00
46946;BME280;32679;40.810;14.498;2023-11-21T01:09:22;75382.56;;;14.51;100.00
46946;BME280;32679;40.810;14.498;2023-11-21T01:11:48;75378.81;;;14.53;100.00
46946;BME280;32679;40.810;14.498;2023-11-21T01:14:14;75369.81;;;14.45;100.00
46946;BME280;32679;40.810;14.498;2023-11-21T01:16:39;75392.16;;;14.59;100.00
46946;BME280;32679;40.810;14.498;2023-11-21T01:19:05;75395.56;;;14.60;100.00
46946;BME280;32679;40.810;14.498;2023-11-21T01:21:31;75392.53;;;14.57;100.00
46946;BME280;32679;40.810;14.498;2023-11-21T01:23:56;75380.19;;;14.49;100.00
46946;BME280;32679;40.810;14.498;2023-11-21T01:26:23;75394.16;;;14.63;100.00
46946;BME280;32679;40.810;14.498;2023-11-21T01:28:48;75364.19;;;14.38;100.00
46946;BME280;32679;40.810;14.498;2023-11-21T01:31:15;75396.56;;;14.65;100.00
46946;BME280;32679;40.810;14.498;2023-11-21T01:33:43;75401.16;;;14.67;100.00
46946;BME280;32679;40.810;14.498;2023-11-21T01:36:09;75401.75;;;14.67;100.00
46946;BME280;32679;40.810;14.498;2023-11-21T01:38:34;75381.97;;;14.51;100.00
46946;BME280;32679;40.810;14.498;2023-11-21T01:41:00;75369.38;;;14.40;100.00
46946;BME280;32679;40.810;14.498;2023-11-21T01:43:26;75383.16;;;14.52;100.00
46946;BME280;32679;40.810;14.498;2023-11-21T01:45:53;75375.00;;;14.47;100.00
46946;BME280;32679;40.810;14.498;2023-11-21T01:48:22;75385.19;;;14.56;100.00
46946;BME280;32679;40.810;14.498;2023-11-21T01:50:47;75377.13;;;14.39;100.00
46946;BME280;32679;40.810;14.498;2023-11-21T01:53:14;75371.59;;;14.47;100.00
46946;BME280;32679;40.810;14.498;2023-11-21T01:55:41;75364.19;;;14.38;100.00
46946;BME280;32679;40.810;14.498;2023-11-21T01:58:07;75381.38;;;14.50;100.00
46946;BME280;32679;40.810;14.498;2023-11-21T02:00:33;75376.56;;;14.46;100.00
46946;BME280;32679;40.810;14.498;2023-11-21T02:02:58;75384.38;;;14.53;100.00
46946;BME280;32679;40.810;14.498;2023-11-21T02:05:24;75357.41;;;14.30;100.00
46946;BME280;32679;40.810;14.498;2023-11-21T02:07:51;75375.97;;;14.46;100.00
46946;BME280;32679;40.810;14.498;2023-11-21T02:10:17;75366.97;;;14.38;100.00
46946;BME280;32679;40.810;14.498;2023-11-21T02:12:48;75365.78;;;14.37;100.00
46946;BME280;32679;40.810;14.498;2023-11-21T02:15:14;75374.53;;;14.42;100.00
46946;BME280;32679;40.810;14.498;2023-11-21T02:17:49;75372.97;;;14.43;100.00
46946;BME280;32679;40.810;14.498;2023-11-21T02:20:17;75374.19;;;14.44;100.00
46946;BME280;32679;40.810;14.498;2023-11-21T02:22:44;75378.53;;;14.43;100.00
46946;BME280;32679;40.810;14.498;2023-11-21T02:25:10;75372.38;;;14.42;100.00
46946;BME280;32679;40.810;14.498;2023-11-21T02:27:36;75376.56;;;14.46;100.00
46946;BME280;32679;40.810;14.498;2023-11-21T02:30:03;75375.38;;;14.45;100.00
46946;BME280;32679;40.810;14.498;2023-11-21T02:32:29;75368.63;;;14.44;100.00
46946;BME280;32679;40.810;14.498;2023-11-21T02:34:57;75358.00;;;14.30;100.00
46946;BME280;32679;40.810;14.498;2023-11-21T02:37:26;75374.19;;;14.44;100.00
46946;BME280;32679;40.810;14.498;2023-11-21T02:39:51;75363.00;;;14.37;100.00
46946;BME280;32679;40.810;14.498;2023-11-21T02:42:18;75356.22;;;14.29;100.00
46946;BME280;32679;40.810;14.498;2023-11-21T02:44:43;75355.81;;;14.31;100.00
46946;BME280;32679;40.810;14.498;2023-11-21T02:47:09;75344.00;;;14.16;100.00
46946;BME280;32679;40.810;14.498;2023-11-21T02:49:34;75357.41;;;14.30;100.00
46946;BME280;32679;40.810;14.498;2023-11-21T02:52:01;75363.38;;;14.35;100.00
46946;BME280;32679;40.810;14.498;2023-11-21T02:54:26;75341.81;;;14.16;100.00
46946;BME280;32679;40.810;14.498;2023-11-21T02:56:52;75342.25;;;14.22;100.00
46946;BME280;32679;40.810;14.498;2023-11-21T02:59:18;75361.59;;;14.33;100.00
46946;BME280;32679;40.810;14.498;2023-11-21T03:01:44;75344.06;;;14.23;100.00
46946;BME280;32679;40.810;14.498;2023-11-21T03:04:10;75338.84;;;14.14;100.00
46946;BME280;32679;40.810;14.498;2023-11-21T03:06:36;75349.03;;;14.23;100.00
46946;BME280;32679;40.810;14.498;2023-11-21T03:09:01;75339.03;;;14.16;100.00
46946;BME280;32679;40.810;14.498;2023-11-21T03:11:27;75339.03;;;14.16;100.00
46946;BME280;32679;40.810;14.498;2023-11-21T03:13:52;75348.78;;;14.20;100.00
46946;BME280;32679;40.810;14.498;2023-11-21T03:16:18;75355.59;;;14.28;100.00
46946;BME280;32679;40.810;14.498;2023-11-21T03:18:44;75347.44;;;14.24;100.00
46946;BME280;32679;40.810;14.498;2023-11-21T03:21:09;75350.81;;;14.24;100.00
46946;BME280;32679;40.810;14.498;2023-11-21T03:23:36;75352.19;;;14.21;100.00
46946;BME280;32679;40.810;14.498;2023-11-21T03:26:02;75332.69;;;14.13;100.00
46946;BME280;32679;40.810;14.498;2023-11-21T03:28:27;75323.09;;;14.05;100.00
46946;BME280;32679;40.810;14.498;2023-11-21T03:30:53;75311.91;;;13.91;100.00
46946;BME280;32679;40.810;14.498;2023-11-21T03:33:19;75331.66;;;14.08;100.00
46946;BME280;32679;40.810;14.498;2023-11-21T03:35:44;75295.94;;;13.80;100.00
46946;BME280;32679;40.810;14.498;2023-11-21T03:38:10;75338.25;;;14.13;100.00
46946;BME280;32679;40.810;14.498;2023-11-21T03:40:38;75326.66;;;14.01;100.00
46946;BME280;32679;40.810;14.498;2023-11-21T03:43:04;75338.66;;;14.19;100.00
46946;BME280;32679;40.810;14.498;2023-11-21T03:45:30;75330.47;;;14.07;100.00
46946;BME280;32679;40.810;14.498;2023-11-21T03:47:55;75336.66;;;14.14;100.00
46946;BME280;32679;40.810;14.498;2023-11-21T03:50:21;75333.06;;;14.11;100.00
46946;BME280;32679;40.810;14.498;2023-11-21T03:52:46;75330.47;;;14.07;100.00
46946;BME280;32679;40.810;14.498;2023-11-21T03:55:12;75333.06;;;14.11;100.00
46946;BME280;32679;40.810;14.498;2023-11-21T03:57:37;75323.25;;;14.01;100.00
46946;BME280;32679;40.810;14.498;2023-11-21T04:00:08;75315.47;;;13.94;100.00
46946;BME280;32679;40.810;14.498;2023-11-21T04:02:39;75323.88;;;14.01;100.00
46946;BME280;32679;40.810;14.498;2023-11-21T04:05:08;75318.69;;;13.99;100.00
46946;BME280;32679;40.810;14.498;2023-11-21T04:07:35;75329.47;;;14.08;100.00
46946;BME280;32679;40.810;14.498;2023-11-21T04:10:00;75319.50;;;14.02;100.00
46946;BME280;32679;40.810;14.498;2023-11-21T04:12:26;75307.91;;;13.90;100.00
46946;BME280;32679;40.810;14.498;2023-11-21T04:14:51;75319.44;;;13.95;100.00
46946;BME280;32679;40.810;14.498;2023-11-21T04:17:24;75314.28;;;13.93;100.00
46946;BME280;32679;40.810;14.498;2023-11-21T04:19:50;75304.31;;;13.87;100.00
46946;BME280;32679;40.810;14.498;2023-11-21T04:22:17;75277.16;;;13.61;100.00
46946;BME280;32679;40.810;14.498;2023-11-21T04:24:43;75284.78;;;13.73;100.00
46946;BME280;32679;40.810;14.498;2023-11-21T04:27:08;75311.91;;;13.91;100.00
46946;BME280;32679;40.810;14.498;2023-11-21T04:29:34;75284.94;;;13.68;100.00
46946;BME280;32679;40.810;14.498;2023-11-21T04:32:00;75307.09;;;13.87;100.00
46946;BME280;32679;40.810;14.498;2023-11-21T04:34:26;75308.72;;;13.93;100.00
46946;BME280;32679;40.810;14.498;2023-11-21T04:36:51;75313.69;;;13.93;100.00
46946;BME280;32679;40.810;14.498;2023-11-21T04:39:16;75305.13;;;13.90;100.00
46946;BME280;32679;40.810;14.498;2023-11-21T04:41:42;75306.50;;;13.86;100.00
46946;BME280;32679;40.810;14.498;2023-11-21T04:44:08;75303.50;;;13.84;100.00
46946;BME280;32679;40.810;14.498;2023-11-21T04:46:33;75297.50;;;13.79;100.00
46946;BME280;32679;40.810;14.498;2023-11-21T04:48:59;75300.88;;;13.79;100.00
46946;BME280;32679;40.810;14.498;2023-11-21T04:51:24;75291.53;;;13.74;100.00
46946;BME280;32679;40.810;14.498;2023-11-21T04:53:50;75271.19;;;13.56;100.00
46946;BME280;32679;40.810;14.498;2023-11-21T04:56:15;75274.34;;;13.54;100.00
46946;BME280;32679;40.810;14.498;2023-11-21T04:58:41;75279.19;;;13.66;100.00
46946;BME280;32679;40.810;14.498;2023-11-21T05:01:09;75289.53;;;13.70;100.00
46946;BME280;32679;40.810;14.498;2023-11-21T05:03:35;75278.94;;;13.63;100.00
46946;BME280;32679;40.810;14.498;2023-11-21T05:06:01;75275.16;;;13.57;100.00
46946;BME280;32679;40.810;14.498;2023-11-21T05:08:26;75269.97;;;13.55;100.00
46946;BME280;32679;40.810;14.498;2023-11-21T05:10:52;75280.53;;;13.62;100.00
46946;BME280;32679;40.810;14.498;2023-11-21T05:13:18;75280.97;;;13.67;100.00
46946;BME280;32679;40.810;14.498;2023-11-21T05:15:45;75289.13;;;13.72;100.00
46946;BME280;32679;40.810;14.498;2023-11-21T05:18:10;75286.34;;;13.72;100.00
46946;BME280;32679;40.810;14.498;2023-11-21T05:20:36;75296.16;;;13.82;100.00
46946;BME280;32679;40.810;14.498;2023-11-21T05:23:03;75299.31;;;13.80;100.00
46946;BME280;32679;40.810;14.498;2023-11-21T05:25:28;75300.09;;;13.76;100.00
46946;BME280;32679;40.810;14.498;2023-11-21T05:27:57;75305.91;;;13.86;100.00
46946;BME280;32679;40.810;14.498;2023-11-21T05:30:26;75300.69;;;13.77;100.00
46946;BME280;32679;40.810;14.498;2023-11-21T05:32:51;75295.56;;;13.82;100.00
46946;BME280;32679;40.810;14.498;2023-11-21T05:35:17;75313.88;;;13.95;100.00
46946;BME280;32679;40.810;14.498;2023-11-21T05:37:43;75314.50;;;13.96;100.00
46946;BME280;32679;40.810;14.498;2023-11-21T05:40:09;75325.28;;;14.05;100.00
46946;BME280;32679;40.810;14.498;2023-11-21T05:42:35;75318.31;;;14.01;100.00
46946;BME280;32679;40.810;14.498;2023-11-21T05:45:03;75315.91;;;13.99;100.00
46946;BME280;32679;40.810;14.498;2023-11-21T05:47:42;75316.06;;;13.95;100.00
46946;BME280;32679;40.810;14.498;2023-11-21T05:50:09;75315.09;;;13.96;100.00
46946;BME280;32679;40.810;14.498;2023-11-21T05:52:40;75314.88;;;13.94;100.00
46946;BME280;32679;40.810;14.498;2023-11-21T05:55:07;75310.69;;;13.90;100.00
46946;BME280;32679;40.810;14.498;2023-11-21T05:57:36;75337.63;;;14.13;100.00
46946;BME280;32679;40.810;14.498;2023-11-21T06:00:04;75348.44;;;14.22;100.00
46946;BME280;32679;40.810;14.498;2023-11-21T06:02:36;75339.66;;;14.17;100.00
46946;BME280;32679;40.810;14.498;2023-11-21T06:05:02;75323.69;;;14.06;100.00
46946;BME280;32679;40.810;14.498;2023-11-21T06:07:29;75314.72;;;13.98;100.00
46946;BME280;32679;40.810;14.498;2023-11-21T06:09:54;75336.66;;;14.14;100.00
46946;BME280;32679;40.810;14.498;2023-11-21T06:12:20;75356.81;;;14.29;100.00
46946;BME280;32679;40.810;14.498;2023-11-21T06:14:46;75353.19;;;14.26;100.00
46946;BME280;32679;40.810;14.498;2023-11-21T06:17:11;75350.41;;;14.26;100.00
46946;BME280;32679;40.810;14.498;2023-11-21T06:19:36;75355.00;;;14.28;100.00
46946;BME280;32679;40.810;14.498;2023-11-21T06:22:02;75348.03;;;14.24;100.00
46946;BME280;32679;40.810;14.498;2023-11-21T06:24:27;75352.59;;;14.26;100.00
46946;BME280;32679;40.810;14.498;2023-11-21T06:26:53;75392.56;;;14.64;100.00
46946;BME280;32679;40.810;14.498;2023-11-21T06:29:18;75425.53;;;14.92;100.00
46946;BME280;32679;40.810;14.498;2023-11-21T06:31:44;75428.09;;;14.90;100.00
46946;BME280;32679;40.810;14.498;2023-11-21T06:34:11;75496.41;;;15.48;100.00
46946;BME280;32679;40.810;14.498;2023-11-21T06:36:37;75583.19;;;16.27;100.00
46946;BME280;32679;40.810;14.498;2023-11-21T06:39:02;75557.19;;;16.02;100.00
46946;BME280;32679;40.810;14.498;2023-11-21T06:41:33;75551.22;;;16.04;100.00
46946;BME280;32679;40.810;14.498;2023-11-21T06:52:03;75541.81;;;15.91;100.00
46946;BME280;32679;40.810;14.498;2023-11-21T06:54:28;75753.56;;;17.64;100.00
46946;BME280;32679;40.810;14.498;2023-11-21T06:56:54;75790.22;;;18.02;100.00
46946;BME280;32679;40.810;14.498;2023-11-21T06:59:21;75786.81;;;17.95;100.00
46946;BME280;32679;40.810;14.498;2023-11-21T07:01:47;75768.22;;;17.79;100.00
46946;BME280;32679;40.810;14.498;2023-11-21T07:04:12;75749.38;;;17.68;100.00
46946;BME280;32679;40.810;14.498;2023-11-21T07:06:38;75663.97;;;16.93;100.00
46946;BME280;32679;40.810;14.498;2023-11-21T07:09:07;75607.19;;;16.47;100.00
46946;BME280;32679;40.810;14.498;2023-11-21T07:11:37;75612.16;;;16.46;100.00
46946;BME280;32679;40.810;14.498;2023-11-21T07:14:03;75625.19;;;16.62;100.00
46946;BME280;32679;40.810;14.498;2023-11-21T07:16:34;75622.56;;;16.58;100.00
46946;BME280;32679;40.810;14.498;2023-11-21T07:19:00;75582.38;;;16.23;100.00
46946;BME280;32679;40.810;14.498;2023-11-21T07:21:25;75619.53;;;16.48;100.00
46946;BME280;32679;40.810;14.498;2023-11-21T07:23:51;75628.34;;;16.60;100.00
46946;BME280;32679;40.810;14.498;2023-11-21T07:26:17;75615.56;;;16.54;100.00
46946;BME280;32679;40.810;14.498;2023-11-21T07:28:42;75602.38;;;16.43;100.00
46946;BME280;32679;40.810;14.498;2023-11-21T07:31:08;75583.59;;;16.24;100.00
46946;BME280;32679;40.810;14.498;2023-11-21T07:33:33;75573.59;;;16.18;100.00
46946;BME280;32679;40.810;14.498;2023-11-21T07:35:58;75557.00;;;16.00;100.00
46946;BME280;32679;40.810;14.498;2023-11-21T07:38:24;75578.56;;;16.18;100.00
46946;BME280;32679;40.810;14.498;2023-11-21T07:40:49;75586.38;;;16.24;100.00
46946;BME280;32679;40.810;14.498;2023-11-21T07:43:14;75598.34;;;16.35;100.00
46946;BME280;32679;40.810;14.498;2023-11-21T07:45:40;75579.59;;;16.23;100.00
46946;BME280;32679;40.810;14.498;2023-11-21T07:48:08;75594.38;;;16.34;100.00
46946;BME280;32679;40.810;14.498;2023-11-21T07:50:34;75609.16;;;16.44;100.00
46946;BME280;32679;40.810;14.498;2023-11-21T07:56:04;75614.75;;;16.51;100.00
46946;BME280;32679;40.810;14.498;2023-11-21T07:58:30;75622.75;;;16.60;100.00
46946;BME280;32679;40.810;14.498;2023-11-21T08:00:56;75622.75;;;16.60;100.00
46946;BME280;32679;40.810;14.498;2023-11-21T08:03:21;75621.16;;;16.54;100.00
46946;BME280;32679;40.810;14.498;2023-11-21T08:05:47;75612.75;;;16.47;100.00
46946;BME280;32679;40.810;14.498;2023-11-21T08:08:12;75610.56;;;16.47;100.00
46946;BME280;32679;40.810;14.498;2023-11-21T08:10:38;75605.56;;;16.41;100.00
46946;BME280;32679;40.810;14.498;2023-11-21T08:13:04;75606.75;;;16.42;100.00
46946;BME280;32679;40.810;14.498;2023-11-21T08:29:46;75633.34;;;16.67;100.00
46946;BME280;32679;40.810;14.498;2023-11-21T08:32:11;75644.81;;;16.84;100.00
46946;BME280;32679;40.810;14.498;2023-11-21T08:34:37;75703.56;;;17.26;100.00
46946;BME280;32679;40.810;14.498;2023-11-21T08:37:05;75675.59;;;17.05;100.00
46946;BME280;32679;40.810;14.498;2023-11-21T08:39:30;75667.34;;;16.93;100.00
46946;BME280;32679;40.810;14.498;2023-11-21T08:41:57;75678.56;;;17.08;100.00
46946;BME280;32679;40.810;14.498;2023-11-21T08:44:22;75734.38;;;17.55;100.00
46946;BME280;32679;40.810;14.498;2023-11-21T08:46:48;75778.41;;;17.95;100.00
46946;BME280;32679;40.810;14.498;2023-11-21T08:49:14;75751.97;;;17.65;100.00
46946;BME280;32679;40.810;14.498;2023-11-21T08:51:40;75809.44;;;18.19;100.00
46946;BME280;32679;40.810;14.498;2023-11-21T08:54:06;75796.63;;;18.13;100.00
46946;BME280;32679;40.810;14.498;2023-11-21T08:56:36;75814.84;;;18.23;100.00
46946;BME280;32679;40.810;14.498;2023-11-21T08:59:01;75821.63;;;18.24;100.00
46946;BME280;32679;40.810;14.498;2023-11-21T09:01:31;75804.03;;;18.14;100.00
46946;BME280;32679;40.810;14.498;2023-11-21T09:03:58;75888.13;;;18.86;100.00
46946;BME280;32679;40.810;14.498;2023-11-21T09:06:24;75943.78;;;19.37;100.00
46946;BME280;32679;40.810;14.498;2023-11-21T09:08:49;75944.19;;;19.35;96.94
46946;BME280;32679;40.810;14.498;2023-11-21T09:11:15;75930.16;;;19.21;97.21
46946;BME280;32679;40.810;14.498;2023-11-21T09:13:40;75886.31;;;18.84;99.19
46946;BME280;32679;40.810;14.498;2023-11-21T09:16:06;75904.16;;;18.97;99.63
46946;BME280;32679;40.810;14.498;2023-11-21T09:18:31;75871.91;;;18.72;100.00
46946;BME280;32679;40.810;14.498;2023-11-21T09:20:57;75849.06;;;18.52;100.00
46946;BME280;32679;40.810;14.498;2023-11-21T09:23:24;75834.47;;;18.38;100.00
46946;BME280;32679;40.810;14.498;2023-11-21T09:25:49;75882.72;;;18.81;100.00
46946;BME280;32679;40.810;14.498;2023-11-21T09:28:15;75879.09;;;18.78;100.00
46946;BME280;32679;40.810;14.498;2023-11-21T09:30:42;75908.53;;;19.03;98.07
46946;BME280;32679;40.810;14.498;2023-11-21T09:33:08;75896.53;;;18.93;97.98
46946;BME280;32679;40.810;14.498;2023-11-21T09:35:37;75885.72;;;18.83;98.41
46946;BME280;32679;40.810;14.498;2023-11-21T09:38:03;75934.97;;;19.25;95.29
46946;BME280;32679;40.810;14.498;2023-11-21T09:40:35;75944.78;;;19.36;95.10
46946;BME280;32679;40.810;14.498;2023-11-21T09:43:06;76016.53;;;19.92;91.75
46946;BME280;32679;40.810;14.498;2023-11-21T09:45:45;75985.47;;;19.68;92.75
46946;BME280;32679;40.810;14.498;2023-11-21T09:48:11;76019.34;;;19.92;92.18
46946;BME280;32679;40.810;14.498;2023-11-21T09:50:39;76011.91;;;19.91;90.29
46946;BME280;32679;40.810;14.498;2023-11-21T09:53:20;76050.38;;;20.23;89.73
46946;BME280;32679;40.810;14.498;2023-11-21T09:55:47;76033.56;;;20.09;89.18
46946;BME280;32679;40.810;14.498;2023-11-21T09:58:14;75995.47;;;19.81;91.26
46946;BME280;32679;40.810;14.498;2023-11-21T10:00:44;75990.28;;;19.72;91.97
46946;BME280;32679;40.810;14.498;2023-11-21T10:03:10;75992.69;;;19.74;92.11
46946;BME280;32679;40.810;14.498;2023-11-21T10:05:37;75984.47;;;19.70;92.69
46946;BME280;32679;40.810;14.498;2023-11-21T10:08:09;76011.50;;;19.93;91.51
46946;BME280;32679;40.810;14.498;2023-11-21T10:10:36;75992.88;;;19.70;92.26
46946;BME280;32679;40.810;14.498;2023-11-21T10:13:04;75989.69;;;19.72;92.67
46946;BME280;32679;40.810;14.498;2023-11-21T10:15:34;75999.47;;;19.75;92.21
46946;BME280;32679;40.810;14.498;2023-11-21T10:18:04;75947.78;;;19.38;92.50
46946;BME280;32679;40.810;14.498;2023-11-21T10:20:32;76022.72;;;20.00;90.97
46946;BME280;32679;40.810;14.498;2023-11-21T10:23:01;76018.13;;;19.98;88.95
46946;BME280;32679;40.810;14.498;2023-11-21T10:25:32;76002.31;;;19.82;87.77
46946;BME280;32679;40.810;14.498;2023-11-21T10:27:59;76002.31;;;19.82;87.62
46946;BME280;32679;40.810;14.498;2023-11-21T10:30:33;76076.44;;;20.48;84.90
46946;BME280;32679;40.810;14.498;2023-11-21T10:33:02;76099.69;;;20.65;83.33
46946;BME280;32679;40.810;14.498;2023-11-21T10:35:43;76143.38;;;21.07;81.11
46946;BME280;32679;40.810;14.498;2023-11-21T10:38:18;76188.72;;;21.40;78.25
46946;BME280;32679;40.810;14.498;2023-11-21T10:40:46;76143.00;;;21.02;79.11
46946;BME280;32679;40.810;14.498;2023-11-21T10:43:13;76127.56;;;20.91;80.61
46946;BME280;32679;40.810;14.498;2023-11-21T10:45:41;76120.13;;;20.82;82.03
46946;BME280;32679;40.810;14.498;2023-11-21T10:48:13;76108.13;;;20.72;82.74
46946;BME280;32679;40.810;14.498;2023-11-21T10:50:45;76090.09;;;20.57;83.38
46946;BME280;32679;40.810;14.498;2023-11-21T10:53:10;76092.47;;;20.59;82.28
46946;BME280;32679;40.810;14.498;2023-11-21T10:55:39;76112.91;;;20.76;82.76
46946;BME280;32679;40.810;14.498;2023-11-21T10:58:05;76041.97;;;20.16;89.05
46946;BME280;32679;40.810;14.498;2023-11-21T11:00:32;76030.53;;;20.06;91.51
46946;BME280;32679;40.810;14.498;2023-11-21T11:02:59;76041.38;;;20.15;92.08
46946;BME280;32679;40.810;14.498;2023-11-21T11:05:26;75983.66;;;19.67;95.17
46946;BME280;32679;40.810;14.498;2023-11-21T11:08:05;75990.88;;;19.73;96.30
46946;BME280;32679;40.810;14.498;2023-11-21T11:10:31;75962.22;;;19.51;98.05
46946;BME280;32679;40.810;14.498;2023-11-21T11:12:58;75984.47;;;19.70;96.21
46946;BME280;32679;40.810;14.498;2023-11-21T11:15:27;75996.28;;;19.77;96.68
46946;BME280;32679;40.810;14.498;2023-11-21T11:17:54;75979.66;;;19.66;95.94
46946;BME280;32679;40.810;14.498;2023-11-21T11:20:25;76001.69;;;19.82;94.94
46946;BME280;32679;40.810;14.498;2023-11-21T11:28:17;76015.91;;;19.99;92.84
46946;BME280;32679;40.810;14.498;2023-11-21T11:38:36;76013.50;;;19.97;89.62
46946;BME280;32679;40.810;14.498;2023-11-21T11:41:03;76083.25;;;20.56;87.12
46946;BME280;32679;40.810;14.498;2023-11-21T11:43:32;76046.19;;;20.20;85.20
46946;BME280;32679;40.810;14.498;2023-11-21T11:46:02;76084.47;;;20.57;83.57
46946;BME280;32679;40.810;14.498;2023-11-21T11:48:29;76066.00;;;20.36;88.42
46946;BME280;32679;40.810;14.498;2023-11-21T11:51:14;76047.56;;;20.23;91.29
46946;BME280;32679;40.810;14.498;2023-11-21T11:53:46;76042.78;;;20.19;90.83
46946;BME280;32679;40.810;14.498;2023-11-21T11:56:29;76043.56;;;20.22;88.96
46946;BME280;32679;40.810;14.498;2023-11-21T11:58:58;76047.56;;;20.23;89.73
46946;BME280;32679;40.810;14.498;2023-11-21T12:01:26;76014.31;;;19.93;92.80
46946;BME280;32679;40.810;14.498;2023-11-21T12:06:45;76022.31;;;20.02;92.07
46946;BME280;32679;40.810;14.498;2023-11-21T12:09:40;75999.88;;;19.80;90.11
46946;BME280;32679;40.810;14.498;2023-11-21T12:12:08;76037.16;;;20.12;89.37
46946;BME280;32679;40.810;14.498;2023-11-21T12:14:33;76025.94;;;20.05;89.58
46946;BME280;32679;40.810;14.498;2023-11-21T12:16:59;76007.91;;;19.89;89.88
46946;BME280;32679;40.810;14.498;2023-11-21T12:19:25;76024.53;;;20.01;88.86
46946;BME280;32679;40.810;14.498;2023-11-21T12:21:51;75990.47;;;19.75;87.58
46946;BME280;32679;40.810;14.498;2023-11-21T12:24:17;76049.59;;;20.20;85.10
46946;BME280;32679;40.810;14.498;2023-11-21T12:26:43;76049.19;;;20.22;83.71
46946;BME280;32679;40.810;14.498;2023-11-21T12:29:09;76033.94;;;20.14;82.61
46946;BME280;32679;40.810;14.498;2023-11-21T12:31:35;76032.72;;;20.13;83.11
46946;BME280;32679;40.810;14.498;2023-11-21T12:34:01;76040.34;;;20.17;83.31
46946;BME280;32679;40.810;14.498;2023-11-21T12:36:27;76060.59;;;20.32;83.53
46946;BME280;32679;40.810;14.498;2023-11-21T12:38:54;76041.75;;;20.21;84.75
46946;BME280;32679;40.810;14.498;2023-11-21T12:41:19;75985.47;;;19.68;89.48
46946;BME280;32679;40.810;14.498;2023-11-21T12:43:46;76002.31;;;19.82;91.82
46946;BME280;32679;40.810;14.498;2023-11-21T12:46:13;75965.22;;;19.53;94.06
46946;BME280;32679;40.810;14.498;2023-11-21T12:48:44;75974.25;;;19.61;93.86
46946;BME280;32679;40.810;14.498;2023-11-21T12:51:11;75987.88;;;19.70;93.42
46946;BME280;32679;40.810;14.498;2023-11-21T12:53:41;75962.22;;;19.51;95.15
46946;BME280;32679;40.810;14.498;2023-11-21T12:56:15;75952.41;;;19.40;95.46
46946;BME280;32679;40.810;14.498;2023-11-21T12:58:45;75923.97;;;19.21;95.19
46946;BME280;32679;40.810;14.498;2023-11-21T13:01:17;75979.66;;;19.66;94.82
46946;BME280;32679;40.810;14.498;2023-11-21T13:03:48;75952.41;;;19.40;95.94
46946;BME280;32679;40.810;14.498;2023-11-21T13:06:17;75961.41;;;19.48;95.61
46946;BME280;32679;40.810;14.498;2023-11-21T13:08:44;75948.78;;;19.37;96.00
46946;BME280;32679;40.810;14.498;2023-11-21T13:11:13;75952.81;;;19.45;96.67
46946;BME280;32679;40.810;14.498;2023-11-21T13:13:41;75948.59;;;19.42;96.75
46946;BME280;32679;40.810;14.498;2023-11-21T13:16:08;75925.34;;;19.17;98.02
46946;BME280;32679;40.810;14.498;2023-11-21T13:18:34;75911.34;;;19.10;97.71
46946;BME280;32679;40.810;14.498;2023-11-21T13:21:02;75923.97;;;19.14;97.00
46946;BME280;32679;40.810;14.498;2023-11-21T13:23:36;75906.94;;;19.04;95.80
46946;BME280;32679;40.810;14.498;2023-11-21T13:26:02;75921.34;;;19.16;94.66
46946;BME280;32679;40.810;14.498;2023-11-21T13:28:31;75905.75;;;19.03;92.97
46946;BME280;32679;40.810;14.498;2023-11-21T13:30:59;75935.56;;;19.26;91.81
46946;BME280;32679;40.810;14.498;2023-11-21T13:33:43;75920.38;;;19.18;91.89
46946;BME280;32679;40.810;14.498;2023-11-21T13:36:15;75916.94;;;19.10;94.15
46946;BME280;32679;40.810;14.498;2023-11-21T13:38:48;75903.13;;;18.98;95.31